Time;durP1;ratioP1;P1;durP2;ratioP2;P2;SDS_P1;SDS_P2;PMS_P1;PMS_P2;Temp;Humidity;BMP_temperature;BMP_pressure;BME280_temperature;BME280_humidity;BME280_pressure;Samples;Min_cycle;Max_cycle;Signal;HPM_P1;HPM_P2
2024/02/12 00:01:14;;;;;;;0.20;0.20;;;;;;;9.17;73.33;99828.63;5090644;28;20024;-80
2024/02/12 00:03:40;;;;;;;0.10;0.10;;;;;;;9.14;73.58;99834.00;5083452;28;20032;-80
2024/02/12 00:06:07;;;;;;;0.10;0.10;;;;;;;9.09;73.66;99836.78;5085856;28;20038;-79
2024/02/12 00:08:33;;;;;;;0.22;0.22;;;;;;;9.09;73.16;99835.94;5102619;28;20386;-80
2024/02/12 00:11:00;;;;;;;0.13;0.13;;;;;;;9.07;73.44;99843.88;5106309;28;20024;-81
2024/02/12 00:13:26;;;;;;;0.25;0.25;;;;;;;9.01;73.78;99844.94;5109679;28;20028;-79
2024/02/12 00:15:53;;;;;;;0.20;0.20;;;;;;;8.99;73.61;99841.47;5103993;28;20031;-79
2024/02/12 00:18:23;;;;;;;0.80;0.80;;;;;;;8.89;73.81;99843.53;5106242;28;20031;-78
2024/02/12 00:20:49;;;;;;;0.13;0.13;;;;;;;8.91;73.81;99848.78;5102774;28;20134;-79
2024/02/12 00:23:15;;;;;;;0.63;0.63;;;;;;;8.90;74.13;99854.97;5102917;28;20150;-79
2024/02/12 00:25:42;;;;;;;0.35;0.35;;;;;;;8.88;74.18;99862.06;5102628;28;20036;-79
2024/02/12 00:28:08;;;;;;;2.05;1.95;;;;;;;8.87;74.19;99862.97;5094813;28;20035;-80
2024/02/12 00:30:35;;;;;;;0.10;0.10;;;;;;;8.87;74.04;99868.25;5095816;28;20036;-80
2024/02/12 00:33:04;;;;;;;0.47;0.47;;;;;;;8.93;73.92;99877.78;5103678;28;20151;-80
2024/02/12 00:35:31;;;;;;;0.22;0.22;;;;;;;8.95;74.02;99876.84;5111587;28;20023;-79
2024/02/12 00:37:59;;;;;;;2.25;1.55;;;;;;;9.01;74.24;99881.06;5100652;28;20111;-80
2024/02/12 00:40:26;;;;;;;0.20;0.20;;;;;;;9.02;74.29;99877.50;5104167;28;20098;-80
2024/02/12 00:42:57;;;;;;;0.17;0.17;;;;;;;9.04;74.20;99881.84;5103816;28;20034;-80
2024/02/12 00:45:24;;;;;;;2.92;2.65;;;;;;;9.10;74.28;99874.63;5104895;28;20532;-80
2024/02/12 00:47:50;;;;;;;0.20;0.20;;;;;;;9.14;74.73;99881.59;5100398;28;20039;-80
2024/02/12 00:50:17;;;;;;;0.75;0.75;;;;;;;9.17;74.83;99884.13;5098456;28;20028;-80
2024/02/12 00:52:44;;;;;;;0.20;0.20;;;;;;;9.20;74.59;99882.25;5101983;28;20023;-80
2024/02/12 00:55:13;;;;;;;0.20;0.20;;;;;;;9.16;74.98;99883.25;5104283;28;20487;-80
2024/02/12 00:57:40;;;;;;;0.20;0.20;;;;;;;9.22;74.67;99891.00;5106095;28;20055;-80
2024/02/12 01:00:12;;;;;;;1.00;0.90;;;;;;;9.16;75.08;99895.59;5095804;28;20067;-80
2024/02/12 01:02:40;;;;;;;0.75;0.75;;;;;;;9.25;74.41;99902.41;5097742;28;20042;-80
2024/02/12 01:05:08;;;;;;;0.38;0.38;;;;;;;9.27;74.90;99890.00;5087478;28;20024;-80
2024/02/12 01:07:35;;;;;;;0.20;0.20;;;;;;;9.33;74.59;99903.03;5093394;28;20035;-79
2024/02/12 01:10:03;;;;;;;0.13;0.13;;;;;;;9.34;74.78;99904.78;5099913;28;20035;-80
2024/02/12 01:12:30;;;;;;;0.22;0.22;;;;;;;9.37;74.70;99908.19;5098952;28;20031;-81
2024/02/12 01:14:56;;;;;;;0.20;0.20;;;;;;;9.37;74.46;99913.47;5096406;28;20028;-81
2024/02/12 01:17:23;;;;;;;0.10;0.10;;;;;;;9.38;74.46;99920.50;5097042;28;20032;-80
2024/02/12 01:19:53;;;;;;;0.15;0.15;;;;;;;9.46;74.30;99924.66;5096382;28;20048;-81
2024/02/12 01:22:19;;;;;;;0.20;0.20;;;;;;;9.46;74.48;99920.25;5094265;28;20059;-81
2024/02/12 01:24:46;;;;;;;0.57;0.57;;;;;;;9.47;74.28;99910.53;5093638;28;20053;-80
2024/02/12 01:27:13;;;;;;;1.33;1.23;;;;;;;9.42;74.20;99915.09;5102393;28;20635;-80
2024/02/12 01:29:40;;;;;;;0.55;0.55;;;;;;;9.44;74.31;99916.78;5107190;28;20165;-81
2024/02/12 01:32:09;;;;;;;0.50;0.50;;;;;;;9.47;74.36;99915.84;5105492;28;20103;-81
2024/02/12 01:34:36;;;;;;;0.43;0.43;;;;;;;9.46;74.18;99920.25;5107945;28;20032;-81
2024/02/12 01:37:02;;;;;;;0.80;0.80;;;;;;;9.43;73.95;99917.69;5108648;28;20105;-80
2024/02/12 01:39:28;;;;;;;0.15;0.15;;;;;;;9.47;73.96;99921.13;5107637;28;20554;-82
2024/02/12 01:41:55;;;;;;;0.20;0.20;;;;;;;9.47;73.80;99915.84;5104382;28;20023;-82
2024/02/12 01:44:21;;;;;;;0.20;0.20;;;;;;;9.50;73.93;99926.34;5106507;28;20078;-81
2024/02/12 01:46:49;;;;;;;0.10;0.10;;;;;;;9.48;73.93;99928.16;5101798;28;20028;-82
2024/02/12 01:49:17;;;;;;;2.20;2.08;;;;;;;9.49;73.88;99927.25;5104377;28;20159;-82
2024/02/12 01:51:44;;;;;;;0.10;0.10;;;;;;;9.47;73.84;99926.41;5103500;28;20027;-82
2024/02/12 01:54:14;;;;;;;1.30;1.20;;;;;;;9.48;73.88;99929.03;5105265;28;20019;-82
2024/02/12 01:56:41;;;;;;;0.20;0.20;;;;;;;9.49;73.93;99935.16;5104949;28;20020;-81
2024/02/12 01:59:17;;;;;;;0.20;0.20;;;;;;;9.53;74.00;99936.81;5103151;28;20024;-82
2024/02/12 02:01:45;;;;;;;1.45;1.38;;;;;;;9.53;73.85;99934.16;5105000;28;20016;-82
2024/02/12 02:04:12;;;;;;;0.40;0.40;;;;;;;9.55;73.94;99935.84;5104928;28;20513;-82
2024/02/12 02:06:39;;;;;;;0.52;0.52;;;;;;;9.55;73.75;99935.00;5106358;28;20024;-81
2024/02/12 02:09:07;;;;;;;0.57;0.57;;;;;;;9.55;73.86;99941.13;5101929;28;20024;-80
2024/02/12 02:11:34;;;;;;;0.10;0.10;;;;;;;9.60;73.53;99942.78;5105201;28;20581;-82
2024/02/12 02:14:02;;;;;;;0.20;0.20;;;;;;;9.60;73.79;99943.63;5098764;28;20529;-80
2024/02/12 02:16:29;;;;;;;0.10;0.10;;;;;;;9.61;73.58;99945.38;5086747;28;20024;-80
2024/02/12 02:18:55;;;;;;;0.10;0.10;;;;;;;9.61;73.59;99939.22;5086480;28;20032;-79
2024/02/12 02:21:21;;;;;;;0.50;0.50;;;;;;;9.62;73.56;99949.75;5084976;28;20031;-79
2024/02/12 02:23:48;;;;;;;2.15;2.05;;;;;;;9.60;73.49;99946.28;5090964;28;20047;-79
2024/02/12 02:26:15;;;;;;;0.10;0.10;;;;;;;9.57;73.62;99945.50;5094509;28;20031;-79
2024/02/12 02:28:41;;;;;;;0.20;0.20;;;;;;;9.52;73.74;99946.53;5093081;28;20036;-79
2024/02/12 02:31:07;;;;;;;1.55;1.23;;;;;;;9.50;73.67;99942.19;5091853;28;20483;-80
2024/02/12 02:33:35;;;;;;;0.10;0.10;;;;;;;9.49;73.33;99945.75;5093350;28;20032;-81
2024/02/12 02:36:02;;;;;;;0.17;0.17;;;;;;;9.47;73.09;99951.09;5090699;28;20028;-81
2024/02/12 02:38:29;;;;;;;0.28;0.28;;;;;;;9.44;73.19;99958.25;5108150;28;20526;-82
2024/02/12 02:40:55;;;;;;;0.10;0.10;;;;;;;9.42;73.53;99965.34;5100506;28;20054;-81
2024/02/12 02:43:23;;;;;;;0.55;0.55;;;;;;;9.35;73.32;99968.16;5093718;28;20032;-80
2024/02/12 02:45:51;;;;;;;0.10;0.10;;;;;;;9.38;73.29;99973.38;5089146;28;20541;-81
2024/02/12 02:48:19;;;;;;;0.40;0.40;;;;;;;9.33;73.50;99964.72;5084631;28;20042;-81
2024/02/12 02:50:45;;;;;;;0.40;0.30;;;;;;;9.34;73.38;99969.06;5089653;28;20409;-81
2024/02/12 02:53:13;;;;;;;0.17;0.17;;;;;;;9.37;73.36;99970.75;5091784;28;20126;-81
2024/02/12 02:55:41;;;;;;;0.20;0.20;;;;;;;9.39;73.42;99977.75;5090905;28;20038;-81
2024/02/12 02:58:08;;;;;;;0.50;0.50;;;;;;;9.37;73.39;99979.56;5094997;28;20498;-80
2024/02/12 03:00:36;;;;;;;0.20;0.20;;;;;;;9.43;73.60;99986.44;5099830;28;20097;-80
2024/02/12 03:03:03;;;;;;;0.65;0.65;;;;;;;9.34;73.41;99992.88;5105396;28;20030;-80
2024/02/12 03:05:29;;;;;;;1.38;1.38;;;;;;;9.33;73.65;99977.94;5108535;28;20027;-80
2024/02/12 03:07:56;;;;;;;0.20;0.20;;;;;;;9.36;73.71;99983.13;5106676;28;20023;-81
2024/02/12 03:10:22;;;;;;;0.17;0.17;;;;;;;9.38;73.76;99980.44;5105648;28;20037;-81
2024/02/12 03:12:48;;;;;;;0.20;0.20;;;;;;;9.40;73.51;99978.63;5110218;28;20026;-80
2024/02/12 03:15:15;;;;;;;0.28;0.28;;;;;;;9.39;73.55;99985.69;5101777;28;20048;-81
2024/02/12 03:17:43;;;;;;;1.17;1.17;;;;;;;9.35;73.47;99991.97;5103590;28;20028;-81
2024/02/12 03:20:10;;;;;;;0.50;0.50;;;;;;;9.33;73.28;99988.50;5105799;28;20059;-81
2024/02/12 03:22:41;;;;;;;0.28;0.28;;;;;;;9.31;73.49;99989.44;5095093;28;20025;-80
2024/02/12 03:25:09;;;;;;;0.80;0.80;;;;;;;9.30;73.67;99987.72;5103966;28;20023;-80
2024/02/12 03:27:37;;;;;;;0.73;0.73;;;;;;;9.31;73.59;99995.59;5097811;28;20052;-79
2024/02/12 03:30:06;;;;;;;0.22;0.22;;;;;;;9.33;73.37;99993.81;5106054;28;20043;-80
2024/02/12 03:32:33;;;;;;;0.10;0.10;;;;;;;9.28;73.58;99993.03;5103126;28;20363;-80
2024/02/12 03:35:00;;;;;;;0.35;0.35;;;;;;;9.30;73.48;99993.03;5109549;28;20020;-81
2024/02/12 03:37:27;;;;;;;0.20;0.20;;;;;;;9.27;73.58;99999.25;5112524;28;20022;-81
2024/02/12 03:39:53;;;;;;;0.20;0.20;;;;;;;9.23;73.25;99992.31;5111074;28;20486;-81
2024/02/12 03:42:25;;;;;;;0.20;0.20;;;;;;;9.23;73.23;99993.19;5103240;28;20036;-82
2024/02/12 03:44:53;;;;;;;0.20;0.20;;;;;;;9.17;73.30;99992.47;5107750;28;20026;-81
2024/02/12 03:47:27;;;;;;;0.70;0.38;;;;;;;9.17;73.21;99995.13;5108338;28;20039;-81
2024/02/12 04:01:02;;;;;;;0.30;0.30;;;;;;;9.14;73.48;100014.56;5108105;28;20071;-80
2024/02/12 04:03:28;;;;;;;0.20;0.20;;;;;;;9.18;73.55;100021.53;5109168;28;20031;-80
2024/02/12 04:05:54;;;;;;;0.20;0.20;;;;;;;9.19;73.65;100035.59;5110010;28;20024;-81
2024/02/12 04:08:20;;;;;;;0.10;0.10;;;;;;;9.20;73.16;100024.13;5113597;28;20054;-80
2024/02/12 04:10:47;;;;;;;0.57;0.57;;;;;;;9.25;73.29;100032.78;5113168;28;20106;-81
2024/02/12 04:13:14;;;;;;;0.20;0.20;;;;;;;9.27;73.69;100030.97;5109895;28;20057;-81
2024/02/12 04:15:41;;;;;;;0.30;0.30;;;;;;;9.29;73.59;100031.78;5108281;28;20027;-81
2024/02/12 04:18:09;;;;;;;1.30;1.30;;;;;;;9.25;73.40;100043.38;5111482;28;20034;-81
2024/02/12 04:20:37;;;;;;;0.20;0.20;;;;;;;9.29;73.58;100038.88;5110321;28;20044;-82
2024/02/12 04:23:05;;;;;;;0.20;0.20;;;;;;;9.30;73.25;100043.25;5123262;28;20479;-82
2024/02/12 04:25:34;;;;;;;0.20;0.20;;;;;;;9.33;73.29;100038.75;5097068;28;20682;-82
2024/02/12 04:28:02;;;;;;;0.57;0.57;;;;;;;9.37;73.51;100035.09;5100606;28;20027;-82
2024/02/12 04:30:29;;;;;;;0.10;0.10;;;;;;;9.34;73.03;100045.75;5094589;28;20032;-81
2024/02/12 04:32:59;;;;;;;0.77;0.77;;;;;;;9.35;73.32;100039.53;5095622;28;20391;-80
2024/02/12 04:35:25;;;;;;;0.13;0.13;;;;;;;9.35;73.37;100031.63;5095618;28;20133;-81
2024/02/12 04:37:55;;;;;;;0.60;0.60;;;;;;;9.28;72.90;100037.97;5095055;28;20031;-80
2024/02/12 04:40:23;;;;;;;0.17;0.17;;;;;;;9.37;73.19;100040.38;5092910;28;20048;-81
2024/02/12 04:42:52;;;;;;;0.43;0.43;;;;;;;9.33;73.43;100040.50;5097004;28;20034;-81
2024/02/12 04:45:20;;;;;;;0.52;0.52;;;;;;;9.32;73.26;100049.34;5094183;28;20039;-81
2024/02/12 04:47:49;;;;;;;2.80;1.35;;;;;;;9.37;73.46;100047.44;5098667;28;20012;-81
2024/02/12 04:50:15;;;;;;;1.38;1.27;;;;;;;9.33;73.28;100064.28;5096532;28;20024;-81
2024/02/12 04:52:42;;;;;;;0.98;0.90;;;;;;;9.38;73.68;100050.06;5096775;28;20429;-81
2024/02/12 04:55:10;;;;;;;0.20;0.20;;;;;;;9.39;73.47;100053.56;5094858;28;20034;-81
2024/02/12 04:57:37;;;;;;;0.68;0.68;;;;;;;9.41;73.43;100064.97;5095807;28;20023;-81
2024/02/12 05:00:04;;;;;;;0.20;0.20;;;;;;;9.43;73.56;100070.19;5097072;28;20024;-80
2024/02/12 05:02:32;;;;;;;0.20;0.20;;;;;;;9.37;73.31;100069.47;5098190;28;20034;-81
2024/02/12 05:04:59;;;;;;;0.25;0.25;;;;;;;9.38;73.71;100068.56;5101982;28;20056;-81
2024/02/12 05:07:27;;;;;;;3.17;2.92;;;;;;;9.37;73.51;100068.56;5099135;28;20024;-81
2024/02/12 05:09:53;;;;;;;0.68;0.68;;;;;;;9.38;73.65;100081.78;5096002;28;20028;-80
2024/02/12 05:12:19;;;;;;;0.35;0.35;;;;;;;9.38;73.95;100079.13;5098198;28;20055;-81
2024/02/12 05:14:46;;;;;;;0.32;0.32;;;;;;;9.37;73.75;100082.69;5098675;28;20032;-81
2024/02/12 05:17:13;;;;;;;1.13;1.10;;;;;;;9.38;73.91;100081.78;5095535;28;20027;-80
2024/02/12 05:22:41;;;;;;;1.05;0.93;;;;;;;9.49;73.76;100085.91;5095060;28;20036;-82
2024/02/12 05:25:07;;;;;;;1.65;1.00;;;;;;;9.43;73.78;100094.00;5094290;28;20034;-81
2024/02/12 05:27:34;;;;;;;3.22;1.25;;;;;;;9.47;73.79;100093.00;5094013;28;20052;-81
2024/02/12 05:30:00;;;;;;;0.20;0.20;;;;;;;9.41;73.89;100093.16;5096768;28;20032;-82
2024/02/12 05:32:28;;;;;;;0.17;0.17;;;;;;;9.40;74.06;100089.66;5094464;28;20032;-81
2024/02/12 05:34:55;;;;;;;0.28;0.28;;;;;;;9.41;73.97;100090.50;5093226;28;20023;-81
2024/02/12 05:37:22;;;;;;;1.30;1.20;;;;;;;9.42;73.73;100092.25;5098832;28;20020;-81
2024/02/12 05:39:48;;;;;;;0.80;0.60;;;;;;;9.37;73.83;100095.91;5093876;28;20096;-81
2024/02/12 05:42:14;;;;;;;0.20;0.20;;;;;;;9.34;73.73;100101.25;5086178;28;20040;-80
2024/02/12 05:44:41;;;;;;;1.52;1.52;;;;;;;9.35;73.81;100097.72;5092960;28;20032;-80
2024/02/12 05:47:07;;;;;;;0.40;0.40;;;;;;;9.30;73.80;100101.41;5092728;28;20027;-80
2024/02/12 05:49:34;;;;;;;0.40;0.40;;;;;;;9.28;73.89;100095.28;5100771;28;20495;-78
2024/02/12 05:52:03;;;;;;;0.25;0.25;;;;;;;9.29;73.88;100092.59;5103070;28;20035;-81
2024/02/12 05:54:29;;;;;;;0.25;0.25;;;;;;;9.28;73.82;100100.56;5111083;28;20028;-79
2024/02/12 05:56:57;;;;;;;0.20;0.20;;;;;;;9.28;73.66;100098.78;5108371;28;20012;-80
2024/02/12 05:59:24;;;;;;;0.30;0.30;;;;;;;9.22;73.87;100101.56;5111283;28;20023;-79
2024/02/12 06:01:51;;;;;;;0.47;0.47;;;;;;;9.25;74.09;100109.44;5103365;28;20027;-80
2024/02/12 06:04:17;;;;;;;0.17;0.17;;;;;;;9.26;73.95;100115.59;5110408;28;20072;-80
2024/02/12 06:06:43;;;;;;;0.20;0.20;;;;;;;9.23;74.08;100113.91;5113559;28;20012;-81
2024/02/12 06:09:09;;;;;;;0.20;0.20;;;;;;;9.20;73.97;100121.91;5108847;28;20024;-82
2024/02/12 06:11:37;;;;;;;2.65;0.77;;;;;;;9.21;74.00;100123.66;5102042;28;20077;-81
2024/02/12 06:14:03;;;;;;;0.20;0.20;;;;;;;9.21;73.80;100121.00;5094954;28;20024;-80
2024/02/12 06:16:29;;;;;;;0.15;0.15;;;;;;;9.20;73.75;100124.56;5098792;28;20498;-81
2024/02/12 06:18:57;;;;;;;2.00;1.00;;;;;;;9.14;73.77;100124.72;5102904;28;20028;-81
2024/02/12 06:21:26;;;;;;;1.75;1.55;;;;;;;9.05;73.80;100129.31;5100014;28;20030;-82
2024/02/12 06:23:52;;;;;;;1.65;1.55;;;;;;;9.02;73.60;100131.16;5099010;28;20035;-81
2024/02/12 06:26:19;;;;;;;0.47;0.47;;;;;;;8.97;73.85;100133.94;5114213;28;20406;-81
2024/02/12 06:28:47;;;;;;;0.28;0.28;;;;;;;8.91;73.67;100128.81;5108602;28;20051;-81
2024/02/12 06:31:13;;;;;;;0.20;0.20;;;;;;;8.87;73.74;100137.69;5108452;28;20048;-81
2024/02/12 06:33:40;;;;;;;0.20;0.20;;;;;;;8.81;73.74;100133.44;5115353;28;20051;-82
2024/02/12 06:36:06;;;;;;;0.20;0.20;;;;;;;8.80;73.69;100134.34;5115450;28;20490;-82
2024/02/12 06:38:32;;;;;;;0.10;0.10;;;;;;;8.74;73.78;100140.63;5111821;28;20016;-82
2024/02/12 06:41:00;;;;;;;0.68;0.63;;;;;;;8.70;73.45;100141.63;5110452;28;20042;-82
2024/02/12 06:43:27;;;;;;;0.20;0.20;;;;;;;8.69;73.34;100144.31;5107802;28;20039;-81
2024/02/12 06:45:53;;;;;;;0.20;0.20;;;;;;;8.64;73.45;100151.47;5099753;28;20070;-79
2024/02/12 06:48:19;;;;;;;1.48;1.38;;;;;;;8.60;73.15;100160.34;5103815;28;20048;-80
2024/02/12 06:50:46;;;;;;;0.20;0.20;;;;;;;8.50;73.34;100160.56;5100371;28;20475;-81
2024/02/12 06:53:13;;;;;;;0.15;0.15;;;;;;;8.50;73.20;100164.97;5095619;28;20030;-79
2024/02/12 06:55:39;;;;;;;6.78;2.38;;;;;;;8.48;73.21;100164.16;5097133;28;20020;-79
2024/02/12 06:58:07;;;;;;;0.98;0.98;;;;;;;8.49;73.68;100172.03;5108600;28;20028;-81
2024/02/12 07:00:34;;;;;;;0.80;0.80;;;;;;;8.46;73.57;100173.81;5107763;28;20020;-81
2024/02/12 07:03:02;;;;;;;0.43;0.43;;;;;;;8.41;73.68;100174.81;5112803;28;20027;-81
2024/02/12 07:05:29;;;;;;;0.20;0.20;;;;;;;8.37;73.45;100181.06;5108621;28;20111;-81
2024/02/12 07:07:56;;;;;;;0.20;0.20;;;;;;;8.32;73.97;100182.91;5115768;28;20028;-80
2024/02/12 07:10:24;;;;;;;0.15;0.15;;;;;;;8.30;73.46;100190.00;5122244;28;20040;-79
2024/02/12 07:12:50;;;;;;;0.20;0.20;;;;;;;8.29;73.71;100196.19;5116833;28;20028;-80
2024/02/12 07:15:17;;;;;;;0.10;0.10;;;;;;;8.22;73.50;100191.94;5105720;28;20024;-81
2024/02/12 07:17:43;;;;;;;0.20;0.20;;;;;;;8.17;74.26;100199.06;5107533;28;20115;-81
2024/02/12 07:20:10;;;;;;;0.20;0.20;;;;;;;8.16;74.13;100206.13;5107151;28;20073;-81
2024/02/12 07:22:36;;;;;;;0.10;0.10;;;;;;;8.15;74.09;100206.16;5105024;28;20028;-81
2024/02/12 07:25:04;;;;;;;0.35;0.35;;;;;;;8.16;74.02;100213.16;5091961;28;20043;-80
2024/02/12 07:27:30;;;;;;;0.20;0.20;;;;;;;8.13;74.43;100207.97;5094472;28;20028;-81
2024/02/12 07:29:57;;;;;;;0.20;0.20;;;;;;;8.15;74.20;100211.41;5095673;28;20028;-81
2024/02/12 07:32:23;;;;;;;0.20;0.20;;;;;;;8.10;74.45;100225.59;5091664;28;20084;-81
2024/02/12 07:34:50;;;;;;;0.22;0.22;;;;;;;8.06;74.30;100223.91;5097815;28;20031;-81
2024/02/12 07:37:17;;;;;;;0.20;0.20;;;;;;;8.10;74.04;100230.88;5099109;28;20024;-81
2024/02/12 07:39:43;;;;;;;0.30;0.30;;;;;;;8.12;74.41;100229.97;5100941;28;20051;-80
2024/02/12 07:42:10;;;;;;;0.20;0.20;;;;;;;8.11;74.15;100237.00;5097994;28;20062;-81
2024/02/12 07:44:37;;;;;;;0.30;0.30;;;;;;;8.10;74.90;100241.41;5097122;28;20024;-80
2024/02/12 07:47:05;;;;;;;0.10;0.10;;;;;;;8.14;74.34;100236.06;5099523;28;20104;-85
2024/02/12 07:49:32;;;;;;;0.20;0.20;;;;;;;8.16;74.43;100240.44;5102248;28;20055;-81
2024/02/12 07:52:00;;;;;;;0.10;0.10;;;;;;;8.17;74.70;100244.78;5101854;28;20031;-81
2024/02/12 07:54:28;;;;;;;0.20;0.20;;;;;;;8.18;74.41;100249.19;5094770;28;20081;-80
2024/02/12 07:56:55;;;;;;;0.17;0.17;;;;;;;8.20;74.83;100254.41;5094394;28;20395;-81
2024/02/12 07:59:21;;;;;;;0.10;0.10;;;;;;;8.21;75.02;100249.13;5095264;28;20024;-80
2024/02/12 08:01:48;;;;;;;0.15;0.15;;;;;;;8.22;74.40;100260.53;5104874;28;20028;-80
2024/02/12 08:04:14;;;;;;;0.20;0.20;;;;;;;8.24;74.82;100256.13;5105398;28;20024;-80
2024/02/12 08:06:41;;;;;;;0.10;0.10;;;;;;;8.27;74.89;100261.31;5102594;28;20040;-80
2024/02/12 08:09:08;;;;;;;0.20;0.20;;;;;;;8.29;74.87;100267.44;5104607;28;20481;-80
2024/02/12 08:11:34;;;;;;;0.10;0.10;;;;;;;8.35;74.36;100277.88;5099939;28;20035;-80
2024/02/12 08:14:00;;;;;;;0.40;0.40;;;;;;;8.35;74.48;100275.25;5096545;28;20532;-80
2024/02/12 08:16:26;;;;;;;0.40;0.40;;;;;;;8.40;74.40;100288.34;5097822;28;20028;-80
2024/02/12 08:18:52;;;;;;;0.10;0.10;;;;;;;8.39;75.01;100290.13;5100109;28;20070;-80
2024/02/12 08:21:19;;;;;;;1.50;0.57;;;;;;;8.35;75.68;100295.47;5100406;28;20058;-80
2024/02/12 08:23:45;;;;;;;0.20;0.20;;;;;;;8.46;75.28;100300.56;5100527;28;20043;-80
2024/02/12 08:26:11;;;;;;;0.25;0.25;;;;;;;8.52;75.81;100308.38;5097824;28;20130;-79
2024/02/12 08:28:40;;;;;;;0.10;0.10;;;;;;;8.56;75.97;100304.78;5097502;28;20032;-80
2024/02/12 08:31:06;;;;;;;0.30;0.30;;;;;;;8.57;76.24;100314.44;5096313;28;20027;-80
2024/02/12 08:33:32;;;;;;;0.38;0.38;;;;;;;8.65;75.85;100317.81;5095720;28;20024;-80
2024/02/12 08:35:58;;;;;;;0.55;0.55;;;;;;;8.71;75.32;100317.69;5095992;28;20511;-80
2024/02/12 08:38:25;;;;;;;0.55;0.55;;;;;;;8.74;75.71;100319.38;5096506;28;20437;-78
2024/02/12 08:40:52;;;;;;;0.73;0.73;;;;;;;8.81;75.79;100322.75;5098457;28;20020;-79
2024/02/12 08:43:19;;;;;;;0.28;0.28;;;;;;;8.89;75.61;100328.75;5097734;28;20027;-79
2024/02/12 08:45:46;;;;;;;0.73;0.55;;;;;;;8.94;76.29;100340.09;5098479;28;20055;-79
2024/02/12 08:48:13;;;;;;;4.50;2.60;;;;;;;9.01;76.08;100339.06;5098371;28;20028;-80
2024/02/12 08:50:39;;;;;;;0.40;0.40;;;;;;;8.99;76.00;100340.84;5093048;28;20081;-80
2024/02/12 08:53:05;;;;;;;0.10;0.10;;;;;;;9.10;75.73;100334.47;5093206;28;20053;-77
2024/02/12 08:55:32;;;;;;;0.73;0.73;;;;;;;9.11;75.73;100337.09;5092953;28;20498;-78
2024/02/12 08:57:58;;;;;;;1.10;1.10;;;;;;;9.14;75.83;100342.28;5092182;28;20114;-78
2024/02/12 09:00:27;;;;;;;0.52;0.52;;;;;;;9.16;75.87;100344.91;5095249;28;20027;-79
2024/02/12 09:02:53;;;;;;;0.10;0.10;;;;;;;9.22;75.46;100352.69;5094787;28;20085;-79
2024/02/12 09:05:19;;;;;;;0.10;0.10;;;;;;;9.23;76.10;100357.06;5089010;28;20035;-79
2024/02/12 09:07:46;;;;;;;0.85;0.85;;;;;;;9.31;75.96;100357.78;5093060;28;20039;-78
2024/02/12 09:10:13;;;;;;;0.10;0.10;;;;;;;9.37;76.23;100362.94;5092788;28;20036;-77
2024/02/12 09:12:40;;;;;;;1.27;1.27;;;;;;;9.52;76.17;100363.47;5095388;28;20040;-78
2024/02/12 09:15:07;;;;;;;0.10;0.10;;;;;;;9.55;76.14;100364.28;5094386;28;20540;-77
2024/02/12 09:17:35;;;;;;;1.88;1.77;;;;;;;9.64;76.04;100368.47;5089680;28;20043;-80
2024/02/12 09:20:02;;;;;;;0.65;0.65;;;;;;;9.69;75.55;100371.03;5093463;28;20044;-80
2024/02/12 09:22:31;;;;;;;0.45;0.45;;;;;;;9.82;75.48;100368.94;5090590;28;20020;-81
2024/02/12 09:24:58;;;;;;;0.20;0.20;;;;;;;9.88;75.29;100372.31;5094714;28;20024;-81
2024/02/12 09:27:28;;;;;;;0.20;0.20;;;;;;;9.98;75.30;100380.00;5097811;28;20024;-80
2024/02/12 09:29:54;;;;;;;0.20;0.20;;;;;;;10.03;75.15;100386.94;5099862;28;20023;-81
2024/02/12 09:32:22;;;;;;;0.13;0.13;;;;;;;10.08;75.10;100391.25;5098832;28;20038;-82
2024/02/12 09:34:48;;;;;;;0.10;0.10;;;;;;;10.12;74.57;100395.53;5098008;28;20431;-82
2024/02/12 09:37:18;;;;;;;1.50;0.80;;;;;;;10.00;73.50;100396.72;5100053;28;20027;-82
2024/02/12 09:39:45;;;;;;;0.43;0.43;;;;;;;10.09;73.50;100398.28;5098009;28;20115;-84
2024/02/12 09:42:16;;;;;;;0.45;0.40;;;;;;;10.08;73.17;100399.19;5096057;28;20474;-87
2024/02/12 09:44:47;;;;;;;0.20;0.20;;;;;;;10.04;72.42;100401.03;5093214;28;20403;-87
2024/02/12 09:47:16;;;;;;;0.20;0.20;;;;;;;10.04;72.51;100408.97;5093953;28;20028;-85
2024/02/12 09:49:44;;;;;;;0.90;0.90;;;;;;;10.15;72.62;100409.56;5093701;28;20032;-85
2024/02/12 09:52:13;;;;;;;0.30;0.30;;;;;;;10.14;72.54;100417.56;5094529;28;20028;-84
2024/02/12 09:54:40;;;;;;;0.20;0.20;;;;;;;10.19;71.51;100418.31;5093343;28;20040;-80
2024/02/12 09:57:09;;;;;;;0.40;0.40;;;;;;;10.47;71.93;100417.66;5094726;28;20024;-83
2024/02/12 09:59:35;;;;;;;0.30;0.30;;;;;;;10.59;71.28;100422.63;5094676;28;20028;-84
2024/02/12 10:02:02;;;;;;;0.20;0.20;;;;;;;10.87;72.07;100426.31;5095353;28;21497;-84
2024/02/12 10:04:30;;;;;;;0.10;0.10;;;;;;;11.03;71.09;100429.38;5096411;28;20020;-84
2024/02/12 10:06:56;;;;;;;0.10;0.10;;;;;;;11.16;69.77;100433.41;5082226;28;20138;-84
2024/02/12 10:09:25;;;;;;;0.10;0.10;;;;;;;11.26;70.15;100437.53;5085504;28;20046;-87
2024/02/12 10:11:51;;;;;;;0.10;0.10;;;;;;;11.36;70.26;100442.56;5105451;28;20080;-84
2024/02/12 10:14:33;;;;;;;0.10;0.10;;;;;;;11.29;67.52;100440.09;5097831;28;20048;-86
2024/02/12 10:17:00;;;;;;;0.10;0.10;;;;;;;11.32;68.74;100450.59;5082066;28;20031;-85
2024/02/12 10:19:27;;;;;;;0.10;0.10;;;;;;;11.38;68.20;100448.72;5083052;28;20039;-84
2024/02/12 10:21:54;;;;;;;0.10;0.10;;;;;;;11.40;67.91;100452.16;5082354;28;20642;-85
2024/02/12 10:24:21;;;;;;;0.20;0.20;;;;;;;11.36;67.77;100456.69;5081390;28;20053;-85
2024/02/12 10:26:49;;;;;;;0.20;0.20;;;;;;;11.41;67.44;100462.72;5083774;28;20031;-84
2024/02/12 10:29:18;;;;;;;0.10;0.10;;;;;;;11.44;68.23;100461.75;5082452;28;20052;-89
2024/02/12 10:31:46;;;;;;;0.40;0.40;;;;;;;11.38;66.66;100459.31;5084997;28;20020;-81
2024/02/12 10:34:15;;;;;;;0.10;0.10;;;;;;;11.47;67.51;100464.34;5084791;28;20027;-84
2024/02/12 10:36:47;;;;;;;0.20;0.20;;;;;;;11.49;66.58;100473.13;5088086;28;20036;-81
2024/02/12 10:39:16;;;;;;;0.28;0.28;;;;;;;11.49;66.60;100483.75;5102223;28;20020;-81
2024/02/12 10:41:50;;;;;;;0.10;0.10;;;;;;;11.52;66.10;100483.63;5114265;28;20039;-80
2024/02/12 10:44:18;;;;;;;0.20;0.20;;;;;;;11.70;67.46;100481.34;5097852;28;20105;-79
2024/02/12 10:46:46;;;;;;;0.10;0.10;;;;;;;11.68;65.48;100478.75;5102918;28;20054;-77
2024/02/12 10:49:14;;;;;;;0.28;0.28;;;;;;;11.59;64.70;100484.31;5104542;28;20038;-77
2024/02/12 10:51:43;;;;;;;0.10;0.10;;;;;;;11.69;65.48;100495.53;5098948;28;20030;-77
2024/02/12 10:54:10;;;;;;;0.10;0.10;;;;;;;11.70;65.46;100490.19;5099506;28;20077;-77
2024/02/12 10:56:37;;;;;;;6.93;1.15;;;;;;;11.75;62.90;100487.38;5076727;28;20027;-77
2024/02/12 10:59:04;;;;;;;0.10;0.10;;;;;;;11.84;63.08;100488.88;5090139;28;20024;-78
2024/02/12 11:01:33;;;;;;;0.10;0.10;;;;;;;11.94;63.73;100485.91;5102383;28;20020;-78
2024/02/12 11:04:00;;;;;;;0.10;0.10;;;;;;;11.96;62.50;100484.09;5105727;28;20039;-79
2024/02/12 11:06:27;;;;;;;0.10;0.10;;;;;;;12.00;62.02;100489.31;5106624;28;20052;-79
2024/02/12 11:08:55;;;;;;;0.10;0.10;;;;;;;11.92;62.21;100481.56;5103229;28;20043;-79
2024/02/12 11:11:28;;;;;;;0.10;0.10;;;;;;;11.91;62.28;100480.69;5092392;28;20036;-79
2024/02/12 11:14:05;;;;;;;0.10;0.10;;;;;;;11.89;61.33;100486.97;5092794;28;20032;-79
2024/02/12 11:16:38;;;;;;;0.10;0.10;;;;;;;11.98;63.18;100489.34;5095056;28;20027;-80
2024/02/12 11:19:05;;;;;;;0.20;0.20;;;;;;;11.91;62.36;100501.03;5095939;28;20020;-79
2024/02/12 11:21:35;;;;;;;0.73;0.68;;;;;;;11.75;61.22;100501.53;5100609;28;20282;-79
2024/02/12 11:26:47;;;;;;;0.10;0.10;;;;;;;11.62;62.17;100495.69;5127173;27;20393;-79
2024/02/12 11:29:17;;;;;;;0.10;0.10;;;;;;;11.80;62.20;100509.31;5098414;28;20036;-79
2024/02/12 11:31:47;;;;;;;0.10;0.10;;;;;;;11.91;62.28;100506.34;5098557;28;20024;-79
2024/02/12 11:34:17;;;;;;;0.10;0.10;;;;;;;12.11;62.21;100503.09;5095836;28;20111;-78
2024/02/12 11:36:46;;;;;;;1.27;1.17;;;;;;;12.16;60.97;100508.28;5100029;28;20088;-78
2024/02/12 11:39:12;;;;;;;0.10;0.10;;;;;;;12.40;61.63;100503.94;5099660;28;20096;-78
2024/02/12 11:41:39;;;;;;;0.10;0.10;;;;;;;12.48;60.57;100515.19;5099024;28;20028;-79
2024/02/12 11:44:06;;;;;;;0.10;0.10;;;;;;;12.55;59.44;100515.88;5090345;28;20043;-79
2024/02/12 11:46:34;;;;;;;0.20;0.20;;;;;;;12.50;59.14;100512.47;5084576;28;20027;-79
2024/02/12 11:49:06;;;;;;;0.10;0.10;;;;;;;12.52;60.26;100515.97;5094350;28;20064;-79
2024/02/12 11:51:34;;;;;;;0.20;0.20;;;;;;;12.35;58.97;100517.41;5105871;28;20079;-78